Pagina principale
METAR-TAF:

METAR-TAF

Aeroporti :

Aeroporto di Perugia

Perugia, Italia

latitudine: 43-05N, longitudine: 012-30E, altezza: 208 m

Osservazione

Il bollettino è stato emesso 44 minuti fa, alle 12:50 UTC
Vento 3 kt da sud, variando fra sud-est e ovest/sud-ovest
Temperature 15°C
Umidità 67%
Pressione 1000 hPa
Visibilità 10 km o più
Nubi sparse ad un'altezza di 3000 ft

METAR: LIRZ 131250Z 19003KT 140V250 9999 SCT030 15/09 Q1000

Ora: 14:34 (13:34 UTC)

Previsione

Il bollettino è stato emesso 2 ore e 34 minuti fa, alle 11:00 UTC
Previsione valida dal 13 alle 12 UTC al 14 alle 12 UTC
Vento 5 kt da direzioni variabili
Visibilità: 6000 m
Poco nuvoloso ad un'altezza di 1500 ft
Nuvoloso ad un'altezza di 3000 ft
Temporaneamente
dal 13 alle 12 UTC al 13 alle 15 UTC
Visibilità: 3000 m
pioggia

TAF: LIRZ 131100Z 1312/1412 VRB05KT 6000 FEW015 BKN030 TEMPO 1312/1315 3000 RA

Osservazioni e previsioni meteorologiche di più di 4000 aeroporti (messaggi METAR e TAF).

Le stazioni disponibili sono rappresentate dai dischi gialli e rossi sulla carta.

Puntare il mouse per vedere il nome della stazione.

Clicca sopra per visualizzare le osservazioni e previsioni meteorologiche.

Per cambiare la mappa : fare clic sui pulsanti verdi con una croce nera per ingrandire, il pulsante verde con un trattino per diminuire, o sulla freccia verde per le mappe adiacenti.


METAR-TAF: